EZY896F EGGW-EGPE
Flight info
| Callsign | EZY896F |
|---|---|
| Flight time | 1h 1m |
| Altitude | 34000 |
| Route | OLNEY T420 TNT UN57 POL UN601 RIBEL DCT ABEVI DCT INPIP DCT TLA DCT FOYLE/N0371F250 N560 NESDI DCT GUSSI |
| Aircraft | A320/M-SDE3FGHIRWY/LB1 |
Departure
| Time | 2026-05-09 11:22 |
|---|---|
| Airport | London Luton Airport (EGGW) |
Arrival
| Time | 2026-05-09 12:23 |
|---|---|
| Airport | Inverness Airport (EGPE) |
| Time | Latitude | Longitude | Altitude | Speed | Heading |
|---|---|---|---|---|---|
| 2026-05-09 11:03 | 51.87858 | -0.37896 | 536 ft | 0 kts | 46° |
| 2026-05-09 11:15 | 51.87848 | -0.37912 | 537 ft | 2 kts | 38° |
| 2026-05-09 11:16 | 51.87837 | -0.37932 | 537 ft | 2 kts | 53° |
| 2026-05-09 11:16 | 51.87828 | -0.37955 | 537 ft | 2 kts | 99° |
| 2026-05-09 11:16 | 51.87830 | -0.37967 | 537 ft | 0 kts | 124° |
| 2026-05-09 11:18 | 51.87822 | -0.37951 | 537 ft | 1 kts | 128° |
| 2026-05-09 11:18 | 51.87816 | -0.37939 | 537 ft | 2 kts | 128° |
| 2026-05-09 11:18 | 51.87804 | -0.37911 | 537 ft | 8 kts | 123° |
| 2026-05-09 11:19 | 51.87771 | -0.37801 | 536 ft | 12 kts | 114° |
| 2026-05-09 11:19 | 51.87730 | -0.37665 | 536 ft | 16 kts | 115° |
| 2026-05-09 11:19 | 51.87658 | -0.37482 | 536 ft | 21 kts | 144° |
| 2026-05-09 11:19 | 51.87519 | -0.37502 | 536 ft | 20 kts | 230° |
| 2026-05-09 11:20 | 51.87478 | -0.37699 | 536 ft | 18 kts | 253° |
| 2026-05-09 11:20 | 51.87445 | -0.37880 | 537 ft | 16 kts | 254° |
| 2026-05-09 11:20 | 51.87407 | -0.38027 | 537 ft | 13 kts | 228° |
| 2026-05-09 11:20 | 51.87329 | -0.38096 | 537 ft | 14 kts | 205° |
| 2026-05-09 11:21 | 51.87259 | -0.38067 | 538 ft | 10 kts | 112° |
| 2026-05-09 11:21 | 51.87272 | -0.37952 | 538 ft | 12 kts | 74° |
| 2026-05-09 11:21 | 51.87342 | -0.37551 | 536 ft | 74 kts | 74° |
| 2026-05-09 11:21 | 51.87544 | -0.36397 | 535 ft | 136 kts | 73° |
| 2026-05-09 11:22 | 51.87810 | -0.34780 | 1027 ft | 146 kts | 76° |
| 2026-05-09 11:22 | 51.88069 | -0.33179 | 1795 ft | 152 kts | 76° |
| 2026-05-09 11:22 | 51.88394 | -0.31508 | 2503 ft | 157 kts | 71° |
| 2026-05-09 11:22 | 51.88769 | -0.29843 | 3257 ft | 157 kts | 71° |
| 2026-05-09 11:23 | 51.89203 | -0.28221 | 4005 ft | 156 kts | 58° |
| 2026-05-09 11:23 | 51.89969 | -0.27028 | 4763 ft | 153 kts | 31° |
| 2026-05-09 11:23 | 51.90999 | -0.26623 | 5279 ft | 161 kts | 354° |
| 2026-05-09 11:23 | 51.92057 | -0.27413 | 5551 ft | 181 kts | 309° |
| 2026-05-09 11:24 | 51.92499 | -0.29217 | 6277 ft | 166 kts | 263° |
| 2026-05-09 11:24 | 51.92088 | -0.30930 | 6812 ft | 176 kts | 220° |
| 2026-05-09 11:24 | 51.91194 | -0.32264 | 7720 ft | 178 kts | 232° |
| 2026-05-09 11:24 | 51.90663 | -0.34101 | 8596 ft | 190 kts | 258° |
| 2026-05-09 11:25 | 51.90819 | -0.36396 | 9023 ft | 227 kts | 292° |
| 2026-05-09 11:25 | 51.91696 | -0.38704 | 9590 ft | 254 kts | 307° |
| 2026-05-09 11:25 | 51.92905 | -0.40998 | 10190 ft | 280 kts | 314° |
| 2026-05-09 11:25 | 51.94337 | -0.43326 | 10466 ft | 304 kts | 314° |
| 2026-05-09 11:26 | 51.95880 | -0.45863 | 10752 ft | 325 kts | 314° |
| 2026-05-09 11:26 | 51.97479 | -0.48518 | 11380 ft | 332 kts | 313° |
| 2026-05-09 11:26 | 51.99096 | -0.51230 | 12148 ft | 336 kts | 313° |
| 2026-05-09 11:26 | 52.00737 | -0.53957 | 12915 ft | 339 kts | 314° |
| 2026-05-09 11:27 | 52.02386 | -0.56636 | 13672 ft | 342 kts | 314° |
| 2026-05-09 11:27 | 52.04090 | -0.59369 | 14349 ft | 345 kts | 314° |
| 2026-05-09 11:27 | 52.05810 | -0.62122 | 14988 ft | 349 kts | 314° |
| 2026-05-09 11:27 | 52.07540 | -0.64905 | 15636 ft | 351 kts | 314° |
| 2026-05-09 11:28 | 52.09283 | -0.67724 | 16285 ft | 354 kts | 314° |
| 2026-05-09 11:28 | 52.11039 | -0.70567 | 16928 ft | 357 kts | 314° |
| 2026-05-09 11:28 | 52.12870 | -0.73328 | 17557 ft | 361 kts | 320° |
| 2026-05-09 11:28 | 52.14977 | -0.75599 | 18185 ft | 366 kts | 327° |
| 2026-05-09 11:29 | 52.17167 | -0.77749 | 18751 ft | 369 kts | 327° |
| 2026-05-09 11:29 | 52.19372 | -0.79920 | 19260 ft | 373 kts | 327° |
| 2026-05-09 11:29 | 52.21605 | -0.82132 | 19756 ft | 377 kts | 327° |
| 2026-05-09 11:29 | 52.23857 | -0.84367 | 20241 ft | 381 kts | 327° |
| 2026-05-09 11:30 | 52.26134 | -0.86627 | 20729 ft | 385 kts | 326° |
| 2026-05-09 11:30 | 52.28437 | -0.88912 | 21221 ft | 389 kts | 326° |
| 2026-05-09 11:30 | 52.30762 | -0.91219 | 21714 ft | 393 kts | 326° |
| 2026-05-09 11:30 | 52.33108 | -0.93548 | 22170 ft | 396 kts | 326° |
| 2026-05-09 11:31 | 52.35478 | -0.95907 | 22619 ft | 400 kts | 326° |
| 2026-05-09 11:31 | 52.37834 | -0.98254 | 23092 ft | 404 kts | 326° |
| 2026-05-09 11:31 | 52.40242 | -1.00655 | 23574 ft | 407 kts | 326° |
| 2026-05-09 11:31 | 52.42672 | -1.03085 | 23968 ft | 410 kts | 326° |
| 2026-05-09 11:32 | 52.45111 | -1.05537 | 24346 ft | 413 kts | 325° |
| 2026-05-09 11:32 | 52.47569 | -1.08017 | 24709 ft | 416 kts | 325° |
| 2026-05-09 11:32 | 52.50038 | -1.10506 | 25080 ft | 419 kts | 325° |
| 2026-05-09 11:32 | 52.52528 | -1.13014 | 25460 ft | 421 kts | 325° |
| 2026-05-09 11:33 | 52.55037 | -1.15540 | 25844 ft | 423 kts | 325° |
| 2026-05-09 11:33 | 52.57563 | -1.18081 | 26207 ft | 426 kts | 325° |
| 2026-05-09 11:33 | 52.62659 | -1.23216 | 26892 ft | 432 kts | 325° |
| 2026-05-09 11:34 | 52.65230 | -1.25818 | 27230 ft | 435 kts | 325° |
| 2026-05-09 11:34 | 52.67780 | -1.28405 | 27566 ft | 438 kts | 325° |
| 2026-05-09 11:34 | 52.70380 | -1.31046 | 27887 ft | 440 kts | 325° |
| 2026-05-09 11:34 | 52.73006 | -1.33715 | 28240 ft | 443 kts | 325° |
| 2026-05-09 11:35 | 52.75635 | -1.36393 | 28623 ft | 446 kts | 325° |
| 2026-05-09 11:35 | 52.78286 | -1.39098 | 28968 ft | 449 kts | 324° |
| 2026-05-09 11:35 | 52.80951 | -1.41822 | 29297 ft | 451 kts | 324° |
| 2026-05-09 11:35 | 52.83625 | -1.44557 | 29626 ft | 454 kts | 324° |
| 2026-05-09 11:36 | 52.86322 | -1.47318 | 29924 ft | 457 kts | 324° |
| 2026-05-09 11:36 | 52.89040 | -1.50106 | 30216 ft | 460 kts | 324° |
| 2026-05-09 11:36 | 52.91764 | -1.52904 | 30484 ft | 462 kts | 324° |
| 2026-05-09 11:36 | 52.94501 | -1.55718 | 30721 ft | 465 kts | 324° |
| 2026-05-09 11:37 | 52.97252 | -1.58556 | 30946 ft | 467 kts | 324° |
| 2026-05-09 11:37 | 52.99974 | -1.61374 | 31197 ft | 469 kts | 323° |
| 2026-05-09 11:37 | 53.02751 | -1.64252 | 31462 ft | 471 kts | 324° |
| 2026-05-09 11:37 | 53.05606 | -1.66949 | 31772 ft | 474 kts | 330° |
| 2026-05-09 11:38 | 53.08665 | -1.69023 | 32108 ft | 477 kts | 336° |
| 2026-05-09 11:38 | 53.11785 | -1.70940 | 32411 ft | 477 kts | 336° |
| 2026-05-09 11:38 | 53.14899 | -1.72861 | 32742 ft | 477 kts | 336° |
| 2026-05-09 11:38 | 53.18013 | -1.74790 | 33060 ft | 477 kts | 336° |
| 2026-05-09 11:39 | 53.21127 | -1.76726 | 33378 ft | 477 kts | 336° |
| 2026-05-09 11:39 | 53.24246 | -1.78670 | 33705 ft | 478 kts | 335° |
| 2026-05-09 11:39 | 53.27357 | -1.80614 | 34040 ft | 477 kts | 335° |
| 2026-05-09 11:40 | 53.33540 | -1.84468 | 34170 ft | 468 kts | 335° |
| 2026-05-09 11:40 | 53.39612 | -1.88264 | 34163 ft | 465 kts | 335° |
| 2026-05-09 11:41 | 53.45666 | -1.92084 | 34174 ft | 465 kts | 335° |
| 2026-05-09 11:41 | 53.51719 | -1.95917 | 34177 ft | 465 kts | 335° |
| 2026-05-09 11:42 | 53.57780 | -1.99754 | 34183 ft | 465 kts | 335° |
| 2026-05-09 11:42 | 53.63832 | -2.03599 | 34163 ft | 465 kts | 335° |
| 2026-05-09 11:43 | 53.69886 | -2.07459 | 34167 ft | 465 kts | 335° |
| 2026-05-09 11:43 | 53.75935 | -2.11340 | 34188 ft | 465 kts | 334° |
| 2026-05-09 11:44 | 53.81943 | -2.15382 | 34182 ft | 464 kts | 333° |
| 2026-05-09 11:44 | 53.87925 | -2.19535 | 34175 ft | 465 kts | 333° |
| 2026-05-09 11:45 | 53.93913 | -2.23680 | 34178 ft | 465 kts | 333° |
| 2026-05-09 11:45 | 53.99922 | -2.27810 | 34189 ft | 466 kts | 333° |
| 2026-05-09 11:46 | 54.05888 | -2.31912 | 34195 ft | 466 kts | 333° |
| 2026-05-09 11:46 | 54.11899 | -2.36062 | 34191 ft | 466 kts | 333° |
| 2026-05-09 11:47 | 54.17900 | -2.40232 | 34192 ft | 466 kts | 333° |
| 2026-05-09 11:47 | 54.23893 | -2.44411 | 34217 ft | 466 kts | 332° |
| 2026-05-09 11:48 | 54.29903 | -2.48605 | 34214 ft | 465 kts | 332° |
| 2026-05-09 11:48 | 54.35894 | -2.52789 | 34217 ft | 465 kts | 332° |
| 2026-05-09 11:49 | 54.41889 | -2.57000 | 34201 ft | 465 kts | 332° |
| 2026-05-09 11:49 | 54.47875 | -2.61228 | 34233 ft | 465 kts | 332° |
| 2026-05-09 11:50 | 54.53864 | -2.65465 | 34238 ft | 465 kts | 332° |
| 2026-05-09 11:50 | 54.59843 | -2.69701 | 34244 ft | 464 kts | 332° |
| 2026-05-09 11:51 | 54.65767 | -2.73914 | 34244 ft | 463 kts | 332° |
| 2026-05-09 11:51 | 54.71721 | -2.78158 | 34237 ft | 462 kts | 332° |
| 2026-05-09 11:52 | 54.77664 | -2.82408 | 34257 ft | 461 kts | 331° |
| 2026-05-09 11:52 | 54.83582 | -2.86664 | 34259 ft | 460 kts | 331° |
| 2026-05-09 11:53 | 54.89486 | -2.90928 | 34257 ft | 459 kts | 331° |
| 2026-05-09 11:53 | 54.95356 | -2.95172 | 34253 ft | 459 kts | 331° |
| 2026-05-09 11:54 | 55.01256 | -2.99446 | 34278 ft | 458 kts | 330° |
| 2026-05-09 11:54 | 55.07143 | -3.03732 | 34277 ft | 458 kts | 330° |
| 2026-05-09 11:55 | 55.13025 | -3.08018 | 34271 ft | 457 kts | 330° |
| 2026-05-09 11:56 | 55.30625 | -3.20956 | 34288 ft | 456 kts | 329° |
| 2026-05-09 11:57 | 55.36477 | -3.25281 | 34291 ft | 456 kts | 329° |
| 2026-05-09 11:57 | 55.42292 | -3.29598 | 34285 ft | 456 kts | 329° |
| 2026-05-09 11:57 | 55.45206 | -3.31762 | 34026 ft | 453 kts | 329° |
| 2026-05-09 11:58 | 55.48076 | -3.33951 | 33713 ft | 443 kts | 325° |
| 2026-05-09 11:58 | 55.50664 | -3.36659 | 33334 ft | 425 kts | 315° |
| 2026-05-09 11:58 | 55.52181 | -3.38777 | 33078 ft | 414 kts | 309° |
| 2026-05-09 11:58 | 55.54341 | -3.42183 | 32709 ft | 409 kts | 309° |
| 2026-05-09 11:59 | 55.56430 | -3.45468 | 32351 ft | 406 kts | 309° |
| 2026-05-09 11:59 | 55.58558 | -3.48813 | 31986 ft | 403 kts | 309° |
| 2026-05-09 11:59 | 55.60623 | -3.52057 | 31637 ft | 401 kts | 309° |
| 2026-05-09 11:59 | 55.62703 | -3.55324 | 31286 ft | 398 kts | 309° |
| 2026-05-09 12:00 | 55.64768 | -3.58577 | 30941 ft | 401 kts | 309° |
| 2026-05-09 12:00 | 55.66924 | -3.62012 | 30600 ft | 422 kts | 309° |
| 2026-05-09 12:00 | 55.69131 | -3.65547 | 30245 ft | 441 kts | 310° |
| 2026-05-09 12:00 | 55.71444 | -3.69248 | 29844 ft | 453 kts | 310° |
| 2026-05-09 12:01 | 55.73793 | -3.72975 | 29494 ft | 452 kts | 310° |
| 2026-05-09 12:01 | 55.76143 | -3.76677 | 29102 ft | 450 kts | 310° |
| 2026-05-09 12:01 | 55.78515 | -3.80431 | 28714 ft | 460 kts | 310° |
| 2026-05-09 12:01 | 55.80905 | -3.84237 | 28334 ft | 461 kts | 310° |
| 2026-05-09 12:02 | 55.83289 | -3.88043 | 27957 ft | 459 kts | 310° |
| 2026-05-09 12:02 | 55.85660 | -3.91834 | 27589 ft | 456 kts | 310° |
| 2026-05-09 12:02 | 55.88006 | -3.95591 | 27239 ft | 452 kts | 311° |
| 2026-05-09 12:02 | 55.90337 | -3.99330 | 26879 ft | 448 kts | 311° |
| 2026-05-09 12:03 | 55.92638 | -4.03037 | 26526 ft | 444 kts | 311° |
| 2026-05-09 12:03 | 55.94917 | -4.06722 | 26175 ft | 441 kts | 311° |
| 2026-05-09 12:03 | 55.97186 | -4.10395 | 25826 ft | 438 kts | 311° |
| 2026-05-09 12:03 | 55.99434 | -4.14037 | 25486 ft | 435 kts | 311° |
| 2026-05-09 12:04 | 56.01673 | -4.17666 | 25144 ft | 433 kts | 311° |
| 2026-05-09 12:04 | 56.03894 | -4.21266 | 24811 ft | 430 kts | 311° |
| 2026-05-09 12:04 | 56.06097 | -4.24849 | 24481 ft | 427 kts | 311° |
| 2026-05-09 12:04 | 56.08288 | -4.28424 | 24152 ft | 424 kts | 311° |
| 2026-05-09 12:05 | 56.10463 | -4.31967 | 23818 ft | 423 kts | 313° |
| 2026-05-09 12:05 | 56.12901 | -4.34964 | 23419 ft | 430 kts | 327° |
| 2026-05-09 12:05 | 56.15751 | -4.36763 | 23024 ft | 440 kts | 343° |
| 2026-05-09 12:05 | 56.18785 | -4.37143 | 22637 ft | 448 kts | 359° |
| 2026-05-09 12:06 | 56.21893 | -4.36475 | 22200 ft | 448 kts | 2° |
| 2026-05-09 12:06 | 56.24966 | -4.35741 | 21830 ft | 443 kts | 3° |
| 2026-05-09 12:06 | 56.28005 | -4.35009 | 21396 ft | 439 kts | 3° |
| 2026-05-09 12:06 | 56.31027 | -4.34284 | 20962 ft | 435 kts | 3° |
| 2026-05-09 12:07 | 56.34028 | -4.33573 | 20560 ft | 432 kts | 3° |
| 2026-05-09 12:07 | 56.36999 | -4.32874 | 20155 ft | 429 kts | 3° |
| 2026-05-09 12:07 | 56.39945 | -4.32176 | 19754 ft | 426 kts | 3° |
| 2026-05-09 12:07 | 56.42865 | -4.31478 | 19358 ft | 422 kts | 3° |
| 2026-05-09 12:08 | 56.45762 | -4.30782 | 18970 ft | 419 kts | 3° |
| 2026-05-09 12:08 | 56.48646 | -4.30089 | 18582 ft | 416 kts | 3° |
| 2026-05-09 12:08 | 56.51509 | -4.29407 | 18165 ft | 412 kts | 4° |
| 2026-05-09 12:08 | 56.54331 | -4.28737 | 17717 ft | 408 kts | 4° |
| 2026-05-09 12:09 | 56.57136 | -4.28068 | 17285 ft | 405 kts | 4° |
| 2026-05-09 12:09 | 56.59922 | -4.27396 | 16855 ft | 401 kts | 4° |
| 2026-05-09 12:09 | 56.62680 | -4.26730 | 16423 ft | 399 kts | 4° |
| 2026-05-09 12:10 | 56.70853 | -4.24756 | 15172 ft | 391 kts | 4° |
| 2026-05-09 12:10 | 56.73535 | -4.24110 | 14782 ft | 388 kts | 4° |
| 2026-05-09 12:10 | 56.76174 | -4.23472 | 14381 ft | 386 kts | 4° |
| 2026-05-09 12:11 | 56.78824 | -4.22827 | 14007 ft | 382 kts | 4° |
| 2026-05-09 12:11 | 56.81444 | -4.22191 | 13560 ft | 379 kts | 4° |
| 2026-05-09 12:11 | 56.84027 | -4.21562 | 13123 ft | 376 kts | 5° |
| 2026-05-09 12:11 | 56.86615 | -4.20931 | 12685 ft | 373 kts | 5° |
| 2026-05-09 12:12 | 56.89181 | -4.20307 | 12262 ft | 371 kts | 5° |
| 2026-05-09 12:12 | 56.91730 | -4.19688 | 11846 ft | 368 kts | 5° |
| 2026-05-09 12:12 | 56.94258 | -4.19073 | 11424 ft | 365 kts | 5° |
| 2026-05-09 12:12 | 56.96772 | -4.18459 | 11020 ft | 363 kts | 5° |
| 2026-05-09 12:13 | 56.99269 | -4.17850 | 10631 ft | 361 kts | 5° |
| 2026-05-09 12:13 | 57.01754 | -4.17244 | 10256 ft | 359 kts | 5° |
| 2026-05-09 12:13 | 57.04217 | -4.16637 | 9856 ft | 356 kts | 6° |
| 2026-05-09 12:13 | 57.06661 | -4.16034 | 9435 ft | 353 kts | 5° |
| 2026-05-09 12:14 | 57.09082 | -4.15437 | 9023 ft | 349 kts | 5° |
| 2026-05-09 12:14 | 57.11477 | -4.14844 | 8628 ft | 346 kts | 6° |
| 2026-05-09 12:14 | 57.13855 | -4.14255 | 8229 ft | 343 kts | 5° |
| 2026-05-09 12:14 | 57.16216 | -4.13669 | 7836 ft | 341 kts | 6° |
| 2026-05-09 12:15 | 57.18529 | -4.13093 | 7448 ft | 339 kts | 6° |
| 2026-05-09 12:15 | 57.20832 | -4.12954 | 7065 ft | 323 kts | 351° |
| 2026-05-09 12:15 | 57.22893 | -4.14027 | 6750 ft | 297 kts | 334° |
| 2026-05-09 12:15 | 57.24655 | -4.15759 | 6429 ft | 276 kts | 331° |
| 2026-05-09 12:16 | 57.26284 | -4.17393 | 6104 ft | 258 kts | 332° |
| 2026-05-09 12:16 | 57.27836 | -4.18946 | 5786 ft | 249 kts | 332° |
| 2026-05-09 12:16 | 57.29355 | -4.20470 | 5470 ft | 246 kts | 332° |
| 2026-05-09 12:16 | 57.30860 | -4.21978 | 5160 ft | 245 kts | 333° |
| 2026-05-09 12:17 | 57.32325 | -4.23446 | 4833 ft | 232 kts | 332° |
| 2026-05-09 12:17 | 57.33700 | -4.24827 | 4562 ft | 218 kts | 332° |
| 2026-05-09 12:17 | 57.35029 | -4.26163 | 4324 ft | 217 kts | 332° |
| 2026-05-09 12:17 | 57.36341 | -4.27484 | 4053 ft | 209 kts | 332° |
| 2026-05-09 12:18 | 57.37594 | -4.28744 | 3815 ft | 200 kts | 332° |
| 2026-05-09 12:18 | 57.38780 | -4.29936 | 3631 ft | 189 kts | 332° |
| 2026-05-09 12:18 | 57.39931 | -4.31065 | 3449 ft | 185 kts | 338° |
| 2026-05-09 12:18 | 57.41179 | -4.31366 | 3277 ft | 184 kts | 8° |
| 2026-05-09 12:19 | 57.42354 | -4.30406 | 3111 ft | 189 kts | 38° |
| 2026-05-09 12:19 | 57.43242 | -4.28588 | 2938 ft | 191 kts | 47° |
| 2026-05-09 12:19 | 57.44096 | -4.26719 | 2777 ft | 190 kts | 45° |
| 2026-05-09 12:19 | 57.44955 | -4.24861 | 2689 ft | 189 kts | 46° |
| 2026-05-09 12:20 | 57.45796 | -4.23046 | 2507 ft | 182 kts | 46° |
| 2026-05-09 12:20 | 57.46609 | -4.21290 | 2259 ft | 180 kts | 45° |
| 2026-05-09 12:20 | 57.47422 | -4.19537 | 2016 ft | 177 kts | 45° |
| 2026-05-09 12:20 | 57.48192 | -4.17872 | 1770 ft | 163 kts | 47° |
| 2026-05-09 12:21 | 57.48915 | -4.16312 | 1535 ft | 154 kts | 46° |
| 2026-05-09 12:21 | 57.49585 | -4.14862 | 1330 ft | 145 kts | 47° |
| 2026-05-09 12:21 | 57.50232 | -4.13463 | 1120 ft | 142 kts | 48° |
| 2026-05-09 12:21 | 57.50877 | -4.12092 | 916 ft | 141 kts | 48° |
| 2026-05-09 12:22 | 57.51522 | -4.10740 | 716 ft | 139 kts | 50° |
| 2026-05-09 12:22 | 57.52140 | -4.09366 | 532 ft | 138 kts | 50° |
| 2026-05-09 12:22 | 57.52755 | -4.08008 | 363 ft | 137 kts | 49° |
| 2026-05-09 12:22 | 57.53376 | -4.06667 | 174 ft | 136 kts | 48° |
| 2026-05-09 12:23 | 57.53987 | -4.05327 | 37 ft | 130 kts | 48° |
| 2026-05-09 12:23 | 57.54420 | -4.04388 | 37 ft | 53 kts | 49° |
| 2026-05-09 12:23 | 57.54602 | -4.03992 | 35 ft | 25 kts | 49° |
| 2026-05-09 12:23 | 57.54693 | -4.03795 | 36 ft | 20 kts | 46° |
| 2026-05-09 12:24 | 57.54716 | -4.03744 | 35 ft | 5 kts | 226° |
| 2026-05-09 12:24 | 57.54690 | -4.03801 | 37 ft | 5 kts | 230° |
| 2026-05-09 12:24 | 57.54624 | -4.03937 | 36 ft | 23 kts | 228° |
| 2026-05-09 12:24 | 57.54513 | -4.04182 | 36 ft | 29 kts | 230° |
| 2026-05-09 12:25 | 57.54328 | -4.04591 | 37 ft | 39 kts | 231° |
| 2026-05-09 12:25 | 57.54255 | -4.04889 | 33 ft | 23 kts | 289° |
| 2026-05-09 12:25 | 57.54310 | -4.05175 | 36 ft | 24 kts | 289° |
| 2026-05-09 12:25 | 57.54366 | -4.05476 | 33 ft | 26 kts | 288° |
| 2026-05-09 12:26 | 57.54431 | -4.05809 | 36 ft | 28 kts | 290° |
| 2026-05-09 12:26 | 57.54440 | -4.06088 | 42 ft | 21 kts | 232° |
| 2026-05-09 12:26 | 57.54340 | -4.06246 | 38 ft | 18 kts | 195° |
| 2026-05-09 12:26 | 57.54221 | -4.06242 | 37 ft | 17 kts | 157° |
| 2026-05-09 12:27 | 57.54114 | -4.06148 | 36 ft | 17 kts | 160° |
| 2026-05-09 12:27 | 57.54041 | -4.06188 | 35 ft | 9 kts | 258° |
| 2026-05-09 12:27 | 57.54044 | -4.06240 | 36 ft | 0 kts | 279° |